Time;durP1;ratioP1;P1;durP2;ratioP2;P2;SDS_P1;SDS_P2;PMS_P1;PMS_P2;Temp;Humidity;BMP_temperature;BMP_pressure;BME280_temperature;BME280_humidity;BME280_pressure;Samples;Min_cycle;Max_cycle;Signal;HPM_P1;HPM_P2
2022/12/16 00:01:13;;;;;;;47.13;24.90;;;;;;;-5.14;94.02;100998.75;5136214;27;20031;-73
2022/12/16 00:03:39;;;;;;;45.80;24.88;;;;;;;-5.12;94.64;101009.13;5154034;27;20022;-73
2022/12/16 00:06:06;;;;;;;45.60;24.40;;;;;;;-5.13;94.77;101003.09;5129200;27;20039;-73
2022/12/16 00:08:37;;;;;;;39.75;23.55;;;;;;;-5.09;95.10;101006.72;5118566;27;20057;-73
2022/12/16 00:11:03;;;;;;;43.70;22.97;;;;;;;-5.05;95.25;101013.75;5156772;27;20113;-74
2022/12/16 00:13:30;;;;;;;43.22;24.58;;;;;;;-5.01;95.36;101007.91;5137808;27;20446;-74
2022/12/16 00:15:56;;;;;;;41.42;22.27;;;;;;;-4.95;96.27;101013.34;5136990;27;20501;-74
2022/12/16 00:18:21;;;;;;;45.70;23.73;;;;;;;-4.89;96.22;101013.63;5151047;27;20042;-75
2022/12/16 00:20:50;;;;;;;50.30;26.48;;;;;;;-4.81;96.49;101012.22;5119220;27;20031;-74
2022/12/16 00:23:15;;;;;;;46.83;24.95;;;;;;;-4.74;96.65;101009.94;5145781;27;20562;-74
2022/12/16 00:25:43;;;;;;;48.72;26.95;;;;;;;-4.68;96.83;101015.34;5099544;27;20047;-74
2022/12/16 00:28:09;;;;;;;40.15;24.83;;;;;;;-4.62;96.92;101011.31;5144496;27;20466;-75
2022/12/16 00:30:35;;;;;;;48.40;26.08;;;;;;;-4.58;96.96;101008.03;5119402;27;20027;-75
2022/12/16 00:33:00;;;;;;;46.13;24.27;;;;;;;-4.53;97.40;101006.53;5117135;27;20027;-75
2022/12/16 00:35:26;;;;;;;46.35;22.35;;;;;;;-4.46;97.10;101010.25;5129152;27;20478;-74
2022/12/16 00:37:51;;;;;;;40.15;23.10;;;;;;;-4.39;97.00;101006.22;5130974;27;20046;-75
2022/12/16 00:40:17;;;;;;;39.78;22.35;;;;;;;-4.34;97.13;101004.72;5107600;27;20035;-75
2022/12/16 00:42:42;;;;;;;38.15;23.02;;;;;;;-4.28;96.88;101011.81;5131824;27;20046;-75
2022/12/16 00:45:08;;;;;;;45.72;25.42;;;;;;;-4.23;97.28;101010.31;5108613;27;20483;-75
2022/12/16 00:47:33;;;;;;;46.78;27.13;;;;;;;-4.20;97.26;101001.00;5136566;27;20044;-75
2022/12/16 00:49:59;;;;;;;44.22;24.52;;;;;;;-4.16;96.94;101000.28;5122253;27;20052;-75
2022/12/16 00:52:24;;;;;;;44.67;25.90;;;;;;;-4.07;97.12;101017.00;5137385;27;20034;-75
2022/12/16 00:54:50;;;;;;;44.28;25.23;;;;;;;-4.04;96.80;101007.66;5103720;27;20545;-80
2022/12/16 00:57:15;;;;;;;48.95;25.85;;;;;;;-3.98;96.83;101017.34;5130313;27;20023;-80
2022/12/16 00:59:40;;;;;;;46.30;26.63;;;;;;;-3.94;96.96;101016.66;5108756;27;20502;-80
2022/12/16 01:02:06;;;;;;;49.75;25.85;;;;;;;-3.88;96.55;101016.91;5132322;27;20487;-80
2022/12/16 01:04:31;;;;;;;43.03;25.90;;;;;;;-3.85;96.60;101017.03;5110257;27;20061;-80
2022/12/16 01:06:57;;;;;;;42.58;25.20;;;;;;;-3.85;97.03;101010.97;5120936;27;20034;-80
2022/12/16 01:09:22;;;;;;;47.40;26.25;;;;;;;-3.78;97.07;101019.03;5125166;27;20105;-80
2022/12/16 01:11:48;;;;;;;44.92;24.33;;;;;;;-3.78;96.95;101012.97;5141417;27;20509;-80
2022/12/16 01:14:13;;;;;;;48.90;26.35;;;;;;;-3.73;96.92;101011.44;5156123;27;20420;-80
2022/12/16 01:16:39;;;;;;;44.67;23.50;;;;;;;-3.69;96.75;101018.50;5154384;27;20462;-80
2022/12/16 01:19:04;;;;;;;44.70;26.63;;;;;;;-3.65;96.44;101025.56;5124647;27;20474;-80
2022/12/16 01:21:30;;;;;;;42.22;24.30;;;;;;;-3.62;96.71;101032.56;5116201;27;20039;-80
2022/12/16 01:23:55;;;;;;;50.47;25.23;;;;;;;-3.59;96.87;101032.66;5149078;27;20099;-80
2022/12/16 01:26:21;;;;;;;42.10;23.10;;;;;;;-3.54;96.50;101025.97;5116510;27;20035;-80
2022/12/16 01:28:47;;;;;;;41.33;23.65;;;;;;;-3.51;96.53;101042.50;5134780;27;20100;-81
2022/12/16 01:31:15;;;;;;;43.38;24.55;;;;;;;-3.49;96.48;101042.53;5140655;27;20685;-80
2022/12/16 01:33:40;;;;;;;40.80;23.38;;;;;;;-3.45;96.92;101049.63;5141928;27;20099;-80
2022/12/16 01:36:07;;;;;;;43.97;24.75;;;;;;;-3.42;96.99;101046.25;5138196;27;20400;-81
2022/12/16 01:38:34;;;;;;;47.83;27.40;;;;;;;-3.40;96.68;101050.69;5144537;27;20126;-81
2022/12/16 01:41:00;;;;;;;42.60;25.30;;;;;;;-3.37;96.31;101055.97;5148579;27;20026;-80
2022/12/16 01:43:28;;;;;;;53.47;26.73;;;;;;;-3.34;96.44;101056.09;5116300;27;20130;-80
2022/12/16 01:46:00;;;;;;;43.13;25.75;;;;;;;-3.33;96.37;101057.84;5130781;27;20091;-81
2022/12/16 01:48:31;;;;;;;56.10;29.33;;;;;;;-3.29;96.45;101057.16;5151034;27;20030;-80
2022/12/16 01:51:03;;;;;;;48.33;25.67;;;;;;;-3.26;96.46;101062.44;5145272;27;20369;-81
2022/12/16 01:53:29;;;;;;;47.00;25.92;;;;;;;-3.24;95.97;101065.06;5136877;27;20539;-81
2022/12/16 01:55:57;;;;;;;47.97;27.40;;;;;;;-3.22;96.62;101067.72;5115750;27;20027;-81
2022/12/16 01:58:25;;;;;;;49.05;24.27;;;;;;;-3.19;96.57;101070.44;5131792;27;20091;-81
2022/12/16 02:00:51;;;;;;;44.67;26.10;;;;;;;-3.18;96.54;101067.91;5154640;27;20463;-81
2022/12/16 02:03:17;;;;;;;58.83;27.42;;;;;;;-3.16;96.51;101070.56;5121890;27;20034;-81
2022/12/16 02:05:44;;;;;;;46.42;24.70;;;;;;;-3.14;96.34;101072.38;5151515;27;20047;-80
2022/12/16 02:08:15;;;;;;;43.00;24.92;;;;;;;-3.12;95.84;101075.88;5135263;27;20050;-81
2022/12/16 02:10:40;;;;;;;51.45;27.05;;;;;;;-3.07;96.24;101081.25;5134924;27;20023;-80
2022/12/16 02:13:32;;;;;;;52.20;26.95;;;;;;;-3.06;95.70;101089.09;5158714;27;20026;-81
2022/12/16 02:16:07;;;;;;;43.13;24.15;;;;;;;-3.02;96.31;101090.06;5108195;27;20099;-81
2022/12/16 02:18:50;;;;;;;49.88;25.20;;;;;;;-3.01;96.00;101085.78;5151711;27;20121;-81
2022/12/16 02:22:05;;;;;;;47.67;26.35;;;;;;;-2.98;96.14;101088.50;5149452;27;20041;-81
2022/12/16 02:24:46;;;;;;;43.25;23.33;;;;;;;-2.97;95.95;101096.31;5131237;27;20035;-80
2022/12/16 02:27:12;;;;;;;;;;;;;;;-2.92;95.96;101091.28;5134765;27;20401;-81
2022/12/16 02:29:53;;;;;;;49.85;24.30;;;;;;;-2.91;95.77;101098.25;5152897;27;19911;-81
2022/12/16 02:32:21;;;;;;;40.08;22.90;;;;;;;-2.90;95.46;101092.25;5149900;27;20022;-81
2022/12/16 02:35:09;;;;;;;52.13;24.80;;;;;;;-2.89;95.59;101091.44;5147017;27;20034;-81
2022/12/16 02:37:39;;;;;;;45.95;26.25;;;;;;;-2.91;95.75;101086.19;5145058;27;20030;-81
2022/12/16 02:40:17;;;;;;;50.00;27.58;;;;;;;-2.88;95.79;101088.88;5128549;27;20066;-81
2022/12/16 02:42:54;;;;;;;44.50;23.88;;;;;;;-2.86;95.58;101099.31;5133729;27;20099;-81
2022/12/16 02:45:26;;;;;;;50.53;25.55;;;;;;;-2.87;95.42;101095.84;5150726;27;20067;-81
2022/12/16 02:47:52;;;;;;;46.28;24.83;;;;;;;-2.85;95.61;101093.28;5134595;27;20113;-81
2022/12/16 02:50:21;;;;;;;51.08;27.27;;;;;;;-2.84;95.60;101095.06;5148722;27;20027;-81
2022/12/16 02:52:48;;;;;;;47.17;26.42;;;;;;;-2.83;95.67;101100.28;5153145;27;20045;-81
2022/12/16 02:55:14;;;;;;;45.90;26.05;;;;;;;-2.82;95.79;101101.16;5152613;27;20497;-81
2022/12/16 02:58:05;;;;;;;50.78;26.90;;;;;;;-2.80;95.91;101096.94;5154620;27;20502;-81
2022/12/16 03:01:04;;;;;;;45.38;25.80;;;;;;;-2.77;95.62;101106.53;5149072;27;20249;-81
2022/12/16 03:03:43;;;;;;;48.28;25.13;;;;;;;-2.75;95.75;101094.50;5130572;27;20042;-81
2022/12/16 03:06:13;;;;;;;43.50;23.17;;;;;;;-2.72;95.81;101105.88;5133920;27;20046;-81
2022/12/16 03:08:42;;;;;;;42.42;23.30;;;;;;;-2.72;95.74;101111.06;5127876;27;20037;-81
2022/12/16 03:11:08;;;;;;;43.03;25.48;;;;;;;-2.70;95.86;101109.38;5142849;27;20027;-81
2022/12/16 03:13:42;;;;;;;44.40;24.83;;;;;;;-2.69;96.01;101110.28;5132837;27;20037;-81
2022/12/16 03:16:11;;;;;;;41.15;23.98;;;;;;;-2.69;96.38;101108.59;5150384;27;20054;-81
2022/12/16 03:18:41;;;;;;;38.97;23.88;;;;;;;-2.69;96.37;101098.22;5147950;27;20022;-81
2022/12/16 03:21:08;;;;;;;42.22;24.30;;;;;;;-2.65;95.99;101105.25;5144674;27;20489;-81
2022/12/16 03:23:46;;;;;;;46.55;26.15;;;;;;;-2.65;95.90;101106.97;5132766;27;20122;-81
2022/12/16 03:26:20;;;;;;;44.00;26.00;;;;;;;-2.63;95.94;101111.38;5130803;27;20023;-81
2022/12/16 03:29:02;;;;;;;42.90;25.20;;;;;;;-2.62;96.28;101102.78;5116176;27;20022;-82
2022/12/16 03:31:34;;;;;;;40.05;23.90;;;;;;;-2.60;96.37;101106.31;5130293;27;20046;-80
2022/12/16 03:34:17;;;;;;;45.45;24.52;;;;;;;-2.60;96.62;101119.28;5112679;27;20068;-81
2022/12/16 03:36:50;;;;;;;44.65;25.52;;;;;;;-2.60;96.74;101124.47;5130488;27;20041;-81
2022/12/16 03:39:18;;;;;;;42.03;24.88;;;;;;;-2.56;97.14;101125.44;5149347;27;20458;-82
2022/12/16 03:41:48;;;;;;;50.47;27.65;;;;;;;-2.56;97.02;101125.44;5126393;27;20019;-81
2022/12/16 03:44:14;;;;;;;50.80;27.75;;;;;;;-2.56;97.58;101135.81;5132510;27;20045;-81
2022/12/16 03:46:39;;;;;;;42.80;26.30;;;;;;;-2.54;97.54;101135.88;5131252;27;20030;-82
2022/12/16 03:49:05;;;;;;;48.65;28.05;;;;;;;-2.57;97.44;101134.06;5113784;27;20052;-81
2022/12/16 03:51:30;;;;;;;42.05;24.98;;;;;;;-2.54;97.57;101136.78;5115604;27;20030;-81
2022/12/16 03:53:56;;;;;;;47.40;26.98;;;;;;;-2.52;97.86;101142.00;5114440;27;20050;-81
2022/12/16 03:56:21;;;;;;;46.95;26.88;;;;;;;-2.50;97.54;101141.22;5116765;27;20064;-81
2022/12/16 03:58:47;;;;;;;44.15;26.65;;;;;;;-2.47;97.76;101143.94;5145599;27;20427;-81
2022/12/16 04:01:13;;;;;;;46.25;25.55;;;;;;;-2.46;97.82;101150.88;5127963;27;20546;-81
2022/12/16 04:03:39;;;;;;;44.38;25.10;;;;;;;-2.45;97.49;101152.66;5152726;27;20050;-81
2022/12/16 04:06:05;;;;;;;46.40;24.38;;;;;;;-2.42;98.22;101163.16;5125858;27;20030;-81
2022/12/16 04:08:30;;;;;;;49.17;27.67;;;;;;;-2.42;98.27;101155.38;5151483;27;20031;-81
2022/12/16 04:24:54;;;;;;;42.55;24.27;;;;;;;-2.28;98.41;101176.59;5148399;27;20022;-81
2022/12/16 04:27:26;;;;;;;49.75;27.77;;;;;;;-2.27;98.40;101180.09;5130846;27;20511;-81
